Time;durP1;ratioP1;P1;durP2;ratioP2;P2;SDS_P1;SDS_P2;PMS_P1;PMS_P2;Temp;Humidity;BMP_temperature;BMP_pressure;BME280_temperature;BME280_humidity;BME280_pressure;Samples;Min_cycle;Max_cycle;Signal;HPM_P1;HPM_P2
2023/03/15 00:01:53;;;;;;;1.90;1.00;;;10.30;99.90;;;;;;5965614;24;20354;-80
2023/03/15 00:07:41;;;;;;;1.70;0.77;;;10.30;99.90;;;;;;6110067;23;20061;-80
2023/03/15 00:10:18;;;;;;;1.50;0.70;;;10.20;99.90;;;;;;6106650;23;20291;-80
2023/03/15 00:12:53;;;;;;;7.53;2.95;;;10.20;99.90;;;;;;6086814;23;20028;-80
2023/03/15 00:15:59;;;;;;;10.32;4.35;;;10.20;99.90;;;;;;6110919;23;20021;-80
2023/03/15 00:18:30;;;;;;;5.05;3.65;;;10.20;99.90;;;;;;6047494;23;20049;-80
2023/03/15 00:21:03;;;;;;;9.38;5.20;;;10.20;99.90;;;;;;6027397;23;20016;-80
2023/03/15 00:23:33;;;;;;;4.47;1.67;;;10.20;99.90;;;;;;6103173;23;20078;-80
2023/03/15 00:26:07;;;;;;;1.98;0.80;;;10.10;99.90;;;;;;6094668;23;20022;-80
2023/03/15 00:28:59;;;;;;;1.20;0.40;;;10.10;99.90;;;;;;6085686;23;20010;-80
2023/03/15 00:34:33;;;;;;;1.98;0.70;;;10.10;99.90;;;;;;6187060;23;20028;-81
2023/03/15 00:37:05;;;;;;;3.17;0.50;;;10.10;99.90;;;;;;6195812;22;20052;-80
2023/03/15 00:39:46;;;;;;;1.58;0.80;;;10.10;99.90;;;;;;6179453;23;20030;-80
2023/03/15 00:42:14;;;;;;;1.23;0.70;;;9.90;99.90;;;;;;6163923;23;20084;-80
2023/03/15 00:44:43;;;;;;;3.92;0.77;;;10.10;99.90;;;;;;6165772;23;20024;-80
2023/03/15 00:47:13;;;;;;;2.03;0.40;;;10.10;99.90;;;;;;6166792;23;20027;-80
2023/03/15 00:49:46;;;;;;;1.48;0.50;;;10.10;99.90;;;;;;6167641;23;20024;-80
2023/03/15 00:52:13;;;;;;;1.23;0.40;;;10.10;99.80;;;;;;6171915;23;20428;-80
2023/03/15 00:54:53;;;;;;;0.80;0.50;;;10.00;99.90;;;;;;6196004;23;20020;-79
2023/03/15 00:57:35;;;;;;;1.73;0.60;;;10.00;98.90;;;;;;6175703;23;20017;-80
2023/03/15 01:00:27;;;;;;;0.90;0.40;;;9.90;97.90;;;;;;6139802;23;20028;-81
2023/03/15 01:03:23;;;;;;;1.10;0.60;;;10.20;98.00;;;;;;6132831;23;20520;-80
2023/03/15 01:05:50;;;;;;;;;;;10.00;97.50;;;;;;6135076;23;20025;-79
2023/03/15 01:08:18;;;;;;;1.10;0.50;;;9.20;97.70;;;;;;6161407;23;20351;-80
2023/03/15 01:11:15;;;;;;;1.05;0.50;;;10.00;97.10;;;;;;6164966;23;20036;-80
2023/03/15 01:13:44;;;;;;;1.10;0.50;;;10.00;96.80;;;;;;6126445;23;20096;-80
2023/03/15 01:16:25;;;;;;;1.00;0.50;;;9.80;97.40;;;;;;6141346;23;20028;-80
2023/03/15 01:18:53;;;;;;;2.40;0.50;;;8.80;96.60;;;;;;6058921;23;20025;-80
2023/03/15 01:21:24;;;;;;;1.50;0.50;;;9.70;96.40;;;;;;6123732;23;20048;-80
2023/03/15 01:23:53;;;;;;;2.03;0.50;;;9.80;96.50;;;;;;6129421;23;20021;-80
2023/03/15 01:26:24;;;;;;;0.73;0.40;;;9.80;96.60;;;;;;6111371;23;20029;-80
2023/03/15 01:28:54;;;;;;;2.28;0.77;;;10.10;96.40;;;;;;6156819;23;20033;-80
2023/03/15 01:31:25;;;;;;;0.90;0.60;;;9.80;96.30;;;;;;6106111;23;20021;-80
2023/03/15 01:33:53;;;;;;;1.20;0.52;;;9.90;96.10;;;;;;6116584;23;20033;-80
2023/03/15 01:36:21;;;;;;;1.25;0.40;;;9.80;95.90;;;;;;6111551;23;20018;-80
2023/03/15 01:39:13;;;;;;;3.15;0.55;;;9.70;96.00;;;;;;6105534;23;20087;-80
2023/03/15 01:41:45;;;;;;;1.00;0.57;;;9.80;95.70;;;;;;6021391;23;20507;-80
2023/03/15 01:44:20;;;;;;;0.52;0.30;;;10.30;96.20;;;;;;6023469;23;20026;-80
2023/03/15 01:46:53;;;;;;;2.63;0.93;;;9.60;95.70;;;;;;6024229;23;20062;-80
2023/03/15 01:49:30;;;;;;;1.02;0.30;;;9.60;95.30;;;;;;6024462;23;20027;-80
2023/03/15 01:52:29;;;;;;;1.00;0.50;;;9.50;95.60;;;;;;6075918;23;20023;-80
2023/03/15 01:55:13;;;;;;;0.98;0.52;;;9.50;95.50;;;;;;6041665;23;20853;-80
2023/03/15 01:58:15;;;;;;;0.60;0.50;;;9.50;95.80;;;;;;6021898;23;20046;-80
2023/03/15 02:01:03;;;;;;;1.90;0.50;;;9.50;95.30;;;;;;6025259;23;20037;-80
2023/03/15 02:04:10;;;;;;;1.10;0.60;;;9.40;95.40;;;;;;6045745;23;20933;-81
2023/03/15 02:07:05;;;;;;;1.23;0.45;;;9.40;95.50;;;;;;6064067;23;20049;-81
2023/03/15 02:10:08;;;;;;;1.73;0.40;;;9.40;95.20;;;;;;6108535;23;20024;-81
2023/03/15 02:12:54;;;;;;;0.93;0.40;;;9.30;95.20;;;;;;6081663;23;20216;-81
2023/03/15 02:15:30;;;;;;;3.78;1.65;;;9.00;94.80;;;;;;6072880;23;20033;31
2023/03/15 02:18:38;;;;;;;3.40;1.25;;;9.40;95.10;;;;;;6094655;23;20037;-80
2023/03/15 02:25:14;;;;;;;3.58;1.23;;;9.40;94.90;;;;;;6155955;23;20005;-80
2023/03/15 02:27:43;;;;;;;1.30;0.95;;;8.10;94.60;;;;;;6140429;23;20018;-80
2023/03/15 02:32:52;;;;;;;4.03;0.70;;;9.40;95.00;;;;;;6125418;23;20001;-80
2023/03/15 02:35:32;;;;;;;3.13;1.40;;;9.30;94.70;;;;;;6139806;23;20025;-80
2023/03/15 02:38:06;;;;;;;3.15;2.03;;;9.40;94.80;;;;;;6077935;22;20054;-79
2023/03/15 02:40:34;;;;;;;3.05;1.90;;;9.30;94.80;;;;;;6049054;23;20030;-80
2023/03/15 02:43:23;;;;;;;2.58;1.05;;;9.30;95.00;;;;;;6104844;23;20063;-80
2023/03/15 02:46:32;;;;;;;1.42;0.80;;;9.20;94.90;;;;;;6142800;23;20036;-79
2023/03/15 02:49:35;;;;;;;2.28;1.50;;;9.20;95.00;;;;;;6127402;23;20417;-80
2023/03/15 02:52:06;;;;;;;1.95;0.50;;;9.20;94.70;;;;;;6055705;23;20041;-80
2023/03/15 02:54:33;;;;;;;4.63;2.58;;;9.20;94.70;;;;;;6098987;23;20077;-80
2023/03/15 02:57:07;;;;;;;3.10;1.58;;;9.10;94.80;;;;;;6095124;23;20030;-80
2023/03/15 02:59:40;;;;;;;4.75;2.50;;;9.20;95.00;;;;;;6146136;23;20033;-80
2023/03/15 03:02:32;;;;;;;3.08;1.88;;;8.80;95.10;;;;;;6133796;23;20121;-80
2023/03/15 03:05:06;;;;;;;1.07;0.60;;;9.00;95.00;;;;;;6111440;23;20034;-80
2023/03/15 03:10:49;;;;;;;1.75;0.82;;;9.20;95.10;;;;;;6103486;23;20034;-80
2023/03/15 03:13:23;;;;;;;1.25;0.50;;;9.10;95.30;;;;;;6079077;23;20486;-80
2023/03/15 03:15:57;;;;;;;1.80;0.90;;;9.10;95.30;;;;;;6055704;23;20082;-80
2023/03/15 03:18:56;;;;;;;0.95;0.50;;;9.10;95.30;;;;;;6013092;23;20522;-80
2023/03/15 03:21:24;;;;;;;2.88;0.80;;;9.10;95.50;;;;;;6042751;23;20026;-80
2023/03/15 03:23:54;;;;;;;1.75;0.75;;;9.10;95.30;;;;;;6038699;23;20091;-80
2023/03/15 03:26:26;;;;;;;0.80;0.30;;;8.30;95.30;;;;;;6044465;23;20389;-80
2023/03/15 03:29:04;;;;;;;1.33;0.40;;;9.10;95.50;;;;;;6047088;23;20071;-80
2023/03/15 03:31:33;;;;;;;0.93;0.40;;;9.30;95.60;;;;;;5991794;23;20029;-80
2023/03/15 03:34:02;;;;;;;1.65;0.55;;;9.10;95.50;;;;;;6035042;23;20995;-81
2023/03/15 03:36:30;;;;;;;2.15;0.50;;;9.10;95.90;;;;;;6048619;23;20014;-80
2023/03/15 03:38:58;;;;;;;1.40;0.50;;;9.30;96.00;;;;;;6113626;23;20018;-80
2023/03/15 03:44:36;;;;;;;1.02;0.50;;;8.30;95.20;;;;;;6089371;23;20030;-80
2023/03/15 03:47:04;;;;;;;1.42;0.60;;;8.80;95.20;;;;;;6085757;23;20030;-80
2023/03/15 03:49:31;;;;;;;1.45;0.40;;;9.10;95.20;;;;;;6080812;23;20625;-80
2023/03/15 03:52:02;;;;;;;0.80;0.40;;;9.20;95.10;;;;;;6110277;23;20021;-81
2023/03/15 03:54:31;;;;;;;1.15;0.60;;;9.10;94.90;;;;;;6106127;23;20089;-82
2023/03/15 03:56:58;;;;;;;2.80;0.80;;;9.10;94.90;;;;;;6102201;23;20077;-81
2023/03/15 03:59:30;;;;;;;1.25;0.50;;;8.10;94.60;;;;;;6105165;23;20017;-80
2023/03/15 04:02:11;;;;;;;1.85;0.65;;;9.00;94.70;;;;;;6110588;23;20032;-79
2023/03/15 04:04:58;;;;;;;0.90;0.73;;;9.00;94.50;;;;;;6082467;23;20037;-79
2023/03/15 04:07:26;;;;;;;1.40;0.50;;;8.90;94.40;;;;;;6082445;23;20022;-79
2023/03/15 04:09:55;;;;;;;1.35;0.55;;;7.70;94.20;;;;;;6120267;23;20026;-79
2023/03/15 04:12:23;;;;;;;1.13;0.43;;;9.00;94.50;;;;;;6103270;23;20080;-79
2023/03/15 04:14:53;;;;;;;1.10;0.40;;;8.90;94.50;;;;;;6091862;23;20014;-79
2023/03/15 04:17:23;;;;;;;2.05;0.60;;;8.90;94.60;;;;;;6122321;23;20018;-79
2023/03/15 04:19:51;;;;;;;1.20;0.47;;;8.90;94.40;;;;;;6130598;23;20030;-78
2023/03/15 04:22:24;;;;;;;1.77;0.40;;;8.90;94.00;;;;;;6131781;23;20386;-78
2023/03/15 04:25:07;;;;;;;1.30;0.57;;;8.90;94.20;;;;;;6111674;23;20025;-79
2023/03/15 04:28:02;;;;;;;0.80;0.52;;;8.90;94.20;;;;;;6079152;23;20327;-81
2023/03/15 04:30:57;;;;;;;0.90;0.22;;;8.90;93.90;;;;;;6109861;23;20033;-79
2023/03/15 04:33:54;;;;;;;1.63;0.40;;;8.80;93.80;;;;;;6033600;23;20028;-78
2023/03/15 04:36:37;;;;;;;0.80;0.30;;;8.90;93.70;;;;;;6138798;23;20055;-79
2023/03/15 04:39:28;;;;;;;1.92;0.32;;;8.90;93.80;;;;;;6113386;23;20066;-82
2023/03/15 04:42:13;;;;;;;0.80;0.30;;;8.90;93.60;;;;;;6091841;23;20058;-82
2023/03/15 04:44:59;;;;;;;0.70;0.30;;;8.80;93.50;;;;;;6121203;23;20089;-79
2023/03/15 04:47:49;;;;;;;0.82;0.20;;;8.80;93.40;;;;;;6053295;23;20033;-78
2023/03/15 04:50:39;;;;;;;0.68;0.30;;;8.90;93.10;;;;;;6095284;23;20041;-79
2023/03/15 04:53:32;;;;;;;1.27;0.28;;;8.80;92.80;;;;;;6068700;23;20458;-81
2023/03/15 04:56:12;;;;;;;1.30;0.50;;;8.80;92.70;;;;;;6068189;23;20022;-81
2023/03/15 04:59:18;;;;;;;0.55;0.30;;;8.80;92.40;;;;;;6102335;23;20037;-81
2023/03/15 05:01:46;;;;;;;0.60;0.20;;;8.80;91.90;;;;;;6067254;23;20069;-79
2023/03/15 05:04:28;;;;;;;1.23;0.30;;;8.70;91.40;;;;;;6100157;23;20030;-79
2023/03/15 05:07:13;;;;;;;0.90;0.20;;;8.60;91.40;;;;;;6091921;23;20430;-79
2023/03/15 05:09:55;;;;;;;0.77;0.17;;;8.60;91.60;;;;;;6122343;23;20026;-81
2023/03/15 05:12:56;;;;;;;0.45;0.20;;;9.10;91.60;;;;;;6022672;23;20372;-81
2023/03/15 05:15:41;;;;;;;0.52;0.20;;;8.50;91.50;;;;;;6122525;23;20036;-81
2023/03/15 05:18:27;;;;;;;0.77;0.40;;;8.40;91.60;;;;;;6120271;23;20144;-79
2023/03/15 05:21:33;;;;;;;0.47;0.20;;;8.30;91.60;;;;;;6015448;23;20498;-79
2023/03/15 05:24:11;;;;;;;0.88;0.30;;;8.30;92.00;;;;;;6051622;23;20607;-79
2023/03/15 05:26:53;;;;;;;0.47;0.20;;;8.30;91.60;;;;;;6125287;23;20191;-79
2023/03/15 05:30:02;;;;;;;0.30;0.10;;;8.10;91.30;;;;;;6046994;23;20072;-81
2023/03/15 05:32:58;;;;;;;1.35;0.30;;;8.20;91.50;;;;;;6029151;23;20161;-80
2023/03/15 05:35:45;;;;;;;1.67;0.30;;;8.10;91.40;;;;;;6144418;23;20083;-79
2023/03/15 05:38:34;;;;;;;1.15;0.40;;;8.00;91.20;;;;;;6134919;23;20112;-80
2023/03/15 05:41:25;;;;;;;0.77;0.32;;;8.00;91.50;;;;;;6157003;23;20076;-79
2023/03/15 05:44:21;;;;;;;1.20;0.38;;;7.30;91.40;;;;;;6127632;23;20421;-79
2023/03/15 05:47:01;;;;;;;0.60;0.20;;;7.90;91.80;;;;;;6163342;23;20047;-80
2023/03/15 05:49:45;;;;;;;0.90;0.30;;;7.90;92.00;;;;;;6128501;23;20025;-79
2023/03/15 05:52:48;;;;;;;0.77;0.30;;;7.80;91.80;;;;;;6103325;23;20401;-79
2023/03/15 05:55:50;;;;;;;0.98;0.50;;;7.90;91.90;;;;;;6132321;23;20436;-80
2023/03/15 05:58:29;;;;;;;1.73;0.38;;;8.10;92.10;;;;;;6034675;23;20025;-79
2023/03/15 06:01:15;;;;;;;1.20;0.50;;;8.10;92.10;;;;;;6121049;23;20031;-79
2023/03/15 06:03:58;;;;;;;1.08;0.47;;;7.90;92.00;;;;;;6106153;23;20100;-80
2023/03/15 06:06:30;;;;;;;1.63;0.50;;;7.80;92.10;;;;;;6099494;23;20204;-79
2023/03/15 06:09:01;;;;;;;1.85;0.88;;;7.60;92.30;;;;;;6093567;23;20144;-79
2023/03/15 06:11:29;;;;;;;1.40;0.73;;;7.80;92.40;;;;;;6088152;23;20064;-79
2023/03/15 06:13:57;;;;;;;1.67;0.70;;;7.70;92.50;;;;;;6088865;23;20307;-79
2023/03/15 06:16:37;;;;;;;2.03;1.13;;;7.80;92.80;;;;;;6097799;23;20112;-79
2023/03/15 06:19:09;;;;;;;1.65;1.23;;;7.70;92.80;;;;;;6128591;23;20033;-80
2023/03/15 06:21:37;;;;;;;3.22;1.40;;;7.80;92.60;;;;;;6132730;23;20872;-82
2023/03/15 06:24:11;;;;;;;3.10;2.00;;;7.80;92.70;;;;;;6156677;23;20017;-80
2023/03/15 06:26:39;;;;;;;5.07;2.80;;;7.60;92.80;;;;;;6124686;23;20033;-79
2023/03/15 06:29:07;;;;;;;5.72;2.88;;;7.70;93.30;;;;;;6151834;23;20029;-80
2023/03/15 06:31:40;;;;;;;3.67;2.13;;;7.60;93.40;;;;;;6123772;23;20036;-79
2023/03/15 06:34:11;;;;;;;5.43;2.63;;;7.60;93.40;;;;;;6126602;23;20013;-79
2023/03/15 06:36:38;;;;;;;2.92;1.48;;;7.60;93.60;;;;;;6131736;23;20049;-81
2023/03/15 06:39:05;;;;;;;4.82;2.72;;;7.30;93.70;;;;;;6121572;23;20032;-79
2023/03/15 06:41:44;;;;;;;4.80;2.50;;;7.60;93.80;;;;;;6101939;23;20388;-79
2023/03/15 06:44:16;;;;;;;5.35;3.05;;;7.50;93.90;;;;;;6103483;23;20461;-79
2023/03/15 06:47:07;;;;;;;5.15;2.92;;;7.60;94.00;;;;;;6104970;23;20536;-80
2023/03/15 06:49:36;;;;;;;3.80;2.10;;;7.40;94.00;;;;;;6092345;23;20588;-79
2023/03/15 06:52:05;;;;;;;3.22;1.92;;;7.30;94.30;;;;;;6067092;23;20053;-81
2023/03/15 06:54:34;;;;;;;5.75;2.45;;;7.50;94.50;;;;;;6067163;23;20765;-79
2023/03/15 06:57:02;;;;;;;4.60;2.70;;;7.40;94.30;;;;;;6067273;23;20509;-79
2023/03/15 06:59:34;;;;;;;5.30;3.00;;;7.50;94.40;;;;;;6098114;23;20022;-80
2023/03/15 07:02:35;;;;;;;4.10;2.50;;;7.50;94.30;;;;;;6074413;23;20025;-80
2023/03/15 07:05:09;;;;;;;5.78;2.42;;;7.50;94.80;;;;;;6124432;23;20143;-80
2023/03/15 07:07:37;;;;;;;4.72;3.00;;;7.80;94.70;;;;;;6098165;23;20567;-80
2023/03/15 07:10:04;;;;;;;9.18;4.50;;;7.60;94.60;;;;;;6126291;23;20025;-80
2023/03/15 07:12:35;;;;;;;20.85;9.55;;;7.40;94.10;;;;;;6120713;23;20025;-79
2023/03/15 07:15:03;;;;;;;7.45;3.90;;;7.50;94.30;;;;;;6100590;23;20032;-79
2023/03/15 07:17:30;;;;;;;9.00;4.93;;;7.30;94.00;;;;;;6103504;23;20021;-80
2023/03/15 07:20:04;;;;;;;7.95;3.95;;;7.50;94.20;;;;;;6143416;23;20025;-79
2023/03/15 07:22:33;;;;;;;4.53;2.78;;;7.50;94.10;;;;;;6209148;23;20021;-79
2023/03/15 07:25:01;;;;;;;4.65;3.22;;;7.50;94.00;;;;;;6163416;23;20488;-79
2023/03/15 07:27:29;;;;;;;5.82;2.97;;;7.00;93.90;;;;;;6139754;23;20345;-80
2023/03/15 07:29:56;;;;;;;5.28;2.60;;;7.30;94.20;;;;;;6128985;23;20028;-78
2023/03/15 07:32:23;;;;;;;5.68;2.28;;;7.40;94.10;;;;;;6135183;23;20364;-78
2023/03/15 07:34:57;;;;;;;6.07;2.80;;;7.40;93.90;;;;;;6184903;23;20027;-79
2023/03/15 07:37:24;;;;;;;7.45;3.90;;;7.30;94.10;;;;;;6164757;23;20036;-79
2023/03/15 07:39:51;;;;;;;7.40;3.83;;;7.30;94.10;;;;;;6155985;23;20029;-80
2023/03/15 07:42:21;;;;;;;7.57;3.08;;;7.70;94.20;;;;;;6156753;23;20029;-80
2023/03/15 07:44:53;;;;;;;4.60;2.30;;;7.30;94.30;;;;;;6159253;23;20020;-79
2023/03/15 07:47:21;;;;;;;4.05;2.88;;;6.90;93.80;;;;;;6154491;23;20087;-80
2023/03/15 07:49:49;;;;;;;5.47;2.40;;;7.30;94.00;;;;;;6141433;23;20055;-80
2023/03/15 07:52:20;;;;;;;5.10;2.65;;;7.20;94.00;;;;;;6153897;23;20514;-80
2023/03/15 07:54:49;;;;;;;6.18;3.05;;;7.20;93.90;;;;;;6161873;23;20028;-80
2023/03/15 07:57:17;;;;;;;5.07;2.55;;;7.10;93.60;;;;;;6156792;23;20025;-79
2023/03/15 07:59:47;;;;;;;6.55;3.20;;;7.40;93.70;;;;;;6190940;23;20024;-80
2023/03/15 08:02:14;;;;;;;5.70;3.08;;;7.20;93.30;;;;;;6177460;23;20202;-80
2023/03/15 08:04:49;;;;;;;4.68;2.75;;;7.40;93.20;;;;;;6174776;23;19997;-80
2023/03/15 08:07:17;;;;;;;6.30;3.08;;;7.40;93.20;;;;;;6180053;23;20507;-80
2023/03/15 08:09:45;;;;;;;4.90;2.83;;;7.40;92.80;;;;;;6157720;23;20140;-80
2023/03/15 08:12:12;;;;;;;4.15;1.58;;;7.30;92.70;;;;;;6129706;23;20029;-80
2023/03/15 08:14:43;;;;;;;4.68;2.50;;;7.30;92.80;;;;;;6176725;23;20021;-80
2023/03/15 08:17:11;;;;;;;4.85;2.38;;;7.50;92.40;;;;;;6183066;23;20025;-79
2023/03/15 08:19:39;;;;;;;3.83;1.88;;;7.50;92.50;;;;;;6176574;23;20021;-79
2023/03/15 08:22:10;;;;;;;6.18;2.47;;;7.50;92.20;;;;;;6178186;23;20027;-79
2023/03/15 08:24:37;;;;;;;4.25;2.33;;;7.50;92.10;;;;;;6155337;23;20369;-80
2023/03/15 08:27:06;;;;;;;5.30;2.30;;;7.40;91.90;;;;;;6078456;23;20044;-80
2023/03/15 08:29:34;;;;;;;4.55;2.38;;;7.40;91.80;;;;;;6131280;23;20025;-80
2023/03/15 08:32:06;;;;;;;4.10;1.38;;;7.50;91.40;;;;;;6060748;23;20025;-80
2023/03/15 08:34:41;;;;;;;4.13;1.67;;;7.60;91.30;;;;;;6117395;23;20041;-80
2023/03/15 08:37:11;;;;;;;4.28;1.60;;;7.40;91.20;;;;;;6147437;23;20543;-80
2023/03/15 08:39:39;;;;;;;3.80;2.00;;;7.70;91.00;;;;;;6184355;23;20024;-79
2023/03/15 08:42:06;;;;;;;5.32;2.15;;;7.70;90.90;;;;;;6169102;23;20040;-80
2023/03/15 08:44:34;;;;;;;5.20;1.73;;;7.80;90.60;;;;;;6153604;23;20135;-79
2023/03/15 08:47:04;;;;;;;7.13;2.15;;;7.60;90.50;;;;;;6177374;23;20390;-80
2023/03/15 08:49:31;;;;;;;3.50;1.70;;;7.70;90.60;;;;;;6175479;23;20020;-79
2023/03/15 08:51:59;;;;;;;4.50;1.70;;;7.80;90.50;;;;;;6158356;23;20005;-80
2023/03/15 08:54:28;;;;;;;3.60;1.58;;;7.70;90.20;;;;;;6173367;23;20511;-80
2023/03/15 08:56:59;;;;;;;5.30;2.05;;;7.90;90.50;;;;;;6093057;23;20056;-79
2023/03/15 08:59:26;;;;;;;4.53;1.77;;;7.50;89.90;;;;;;6094506;23;20026;-79
2023/03/15 09:02:01;;;;;;;9.75;4.90;;;7.60;89.90;;;;;;6070773;23;20018;-80
2023/03/15 09:04:30;;;;;;;3.70;2.13;;;7.60;90.00;;;;;;6069285;23;20045;-80
2023/03/15 09:06:57;;;;;;;7.00;1.58;;;8.00;89.20;;;;;;6071767;23;20501;-79
2023/03/15 09:09:25;;;;;;;2.90;1.13;;;7.70;88.50;;;;;;6075077;23;20030;-80
2023/03/15 09:11:55;;;;;;;6.20;1.25;;;7.70;87.70;;;;;;6076985;23;20025;-80
2023/03/15 09:14:22;;;;;;;2.72;1.30;;;8.00;88.10;;;;;;6103177;23;20018;-80
2023/03/15 09:16:49;;;;;;;4.60;2.08;;;7.90;87.70;;;;;;6090014;23;20461;-80
2023/03/15 09:19:17;;;;;;;2.65;1.20;;;7.80;87.60;;;;;;6067268;23;20124;-80
2023/03/15 09:21:46;;;;;;;3.10;1.73;;;7.70;87.20;;;;;;6067595;23;20026;-80
2023/03/15 09:24:13;;;;;;;4.43;1.52;;;7.90;87.50;;;;;;6091609;23;20045;-79
2023/03/15 09:26:40;;;;;;;5.55;2.05;;;7.60;86.40;;;;;;6041556;23;20522;-79
2023/03/15 09:29:10;;;;;;;6.80;2.30;;;7.70;86.40;;;;;;6141410;23;20025;-80
2023/03/15 09:31:38;;;;;;;5.93;2.15;;;7.80;87.10;;;;;;6154863;23;20054;-80
2023/03/15 09:34:05;;;;;;;4.93;2.30;;;7.80;85.60;;;;;;6149304;23;20028;-79
2023/03/15 09:36:33;;;;;;;19.00;9.65;;;8.00;86.20;;;;;;6159373;23;20516;-79
2023/03/15 09:39:01;;;;;;;7.68;2.25;;;7.80;86.80;;;;;;6160599;23;20017;-80
2023/03/15 09:41:46;;;;;;;6.70;1.88;;;7.70;85.90;;;;;;6159247;23;20338;-79
2023/03/15 09:44:38;;;;;;;5.75;2.17;;;7.70;86.60;;;;;;6128134;23;20379;-79
2023/03/15 09:47:50;;;;;;;7.72;3.88;;;7.80;85.70;;;;;;6127905;23;20022;-80
2023/03/15 09:50:35;;;;;;;7.25;2.15;;;7.70;85.50;;;;;;6051750;23;20848;-80
2023/03/15 09:53:12;;;;;;;3.78;1.33;;;7.40;85.30;;;;;;6151850;23;20017;-80
2023/03/15 09:55:41;;;;;;;7.13;2.25;;;7.60;85.50;;;;;;6151292;23;20021;-79
2023/03/15 09:58:20;;;;;;;4.82;1.70;;;7.60;86.10;;;;;;6147963;23;20025;-80
2023/03/15 10:00:53;;;;;;;3.35;1.52;;;7.60;86.10;;;;;;6099242;23;20108;-79
2023/03/15 10:03:50;;;;;;;3.92;1.52;;;7.50;86.30;;;;;;6127605;23;20072;-79
2023/03/15 10:06:23;;;;;;;4.43;2.00;;;7.60;86.00;;;;;;6154361;23;20049;-80
2023/03/15 10:08:57;;;;;;;8.38;3.15;;;7.40;86.20;;;;;;6152687;23;20030;-80
2023/03/15 10:11:44;;;;;;;5.20;1.67;;;7.50;86.80;;;;;;6124526;23;20021;-80
2023/03/15 10:14:23;;;;;;;5.65;2.08;;;7.50;87.10;;;;;;6126205;23;20052;-80
2023/03/15 10:16:51;;;;;;;5.55;1.90;;;7.50;85.90;;;;;;6126180;23;20049;-79
2023/03/15 10:19:52;;;;;;;4.13;1.90;;;7.40;85.60;;;;;;6165941;23;20032;-79
2023/03/15 10:22:28;;;;;;;5.35;1.90;;;7.50;86.10;;;;;;6156061;23;20016;-80
2023/03/15 10:25:24;;;;;;;5.93;1.90;;;7.20;86.80;;;;;;6160432;23;20456;-80
2023/03/15 10:28:00;;;;;;;6.40;1.98;;;7.60;89.30;;;;;;6130035;23;20052;-80
2023/03/15 10:30:34;;;;;;;6.07;2.20;;;7.60;88.80;;;;;;6155970;23;20031;-80
2023/03/15 10:33:17;;;;;;;5.10;2.17;;;7.60;87.90;;;;;;6189497;23;20031;-80
2023/03/15 10:35:47;;;;;;;8.63;3.33;;;7.60;87.80;;;;;;6184866;23;20021;-79
2023/03/15 10:38:19;;;;;;;8.38;2.63;;;7.70;87.30;;;;;;6137298;23;20017;-80
2023/03/15 10:40:58;;;;;;;10.35;3.88;;;7.80;87.30;;;;;;6200582;23;20080;-80
2023/03/15 10:43:29;;;;;;;12.25;4.15;;;8.10;87.70;;;;;;6172816;23;20005;-80
2023/03/15 10:46:03;;;;;;;7.82;2.10;;;8.00;86.00;;;;;;6161725;23;20020;-80
2023/03/15 10:48:33;;;;;;;7.30;3.50;;;8.00;85.90;;;;;;6135258;23;20021;-79
2023/03/15 10:51:05;;;;;;;7.13;2.70;;;8.20;85.00;;;;;;6166412;23;20330;-80
2023/03/15 10:53:36;;;;;;;6.90;2.35;;;8.40;85.20;;;;;;6133643;23;20040;-80
2023/03/15 10:56:11;;;;;;;6.53;2.28;;;8.50;82.20;;;;;;6185990;23;20412;-80
2023/03/15 10:58:51;;;;;;;7.20;3.05;;;8.30;82.10;;;;;;6180208;23;20048;-80
2023/03/15 11:01:39;;;;;;;4.45;1.13;;;8.60;82.50;;;;;;6158586;23;20081;-79
2023/03/15 11:04:12;;;;;;;3.22;1.95;;;8.30;79.40;;;;;;6188468;23;19993;-80
2023/03/15 11:06:46;;;;;;;5.25;1.42;;;8.10;78.80;;;;;;6186674;23;20075;-80
2023/03/15 11:09:22;;;;;;;7.93;3.13;;;8.60;80.00;;;;;;6165795;23;20005;-80
2023/03/15 11:12:23;;;;;;;6.47;1.90;;;8.60;78.80;;;;;;6161266;23;20021;-80
2023/03/15 11:15:03;;;;;;;4.18;1.20;;;8.50;77.70;;;;;;6135891;23;20258;-80
2023/03/15 11:17:33;;;;;;;11.40;1.70;;;8.50;77.90;;;;;;6161173;23;20017;-79
2023/03/15 11:20:34;;;;;;;7.88;1.40;;;8.60;78.30;;;;;;6140090;23;20021;-79
2023/03/15 11:23:30;;;;;;;3.38;1.40;;;8.30;77.40;;;;;;6132355;23;20017;-80
2023/03/15 11:26:10;;;;;;;6.05;1.25;;;8.70;77.30;;;;;;6124499;23;20329;-80
2023/03/15 11:28:49;;;;;;;3.60;1.30;;;8.80;77.70;;;;;;6147675;23;20174;-80
2023/03/15 11:31:26;;;;;;;6.15;2.00;;;9.00;76.80;;;;;;6128130;23;20029;-80
2023/03/15 11:34:15;;;;;;;6.22;1.92;;;9.00;76.70;;;;;;6128206;23;20021;-80
2023/03/15 11:36:46;;;;;;;6.40;2.17;;;8.90;76.30;;;;;;6127355;23;20068;-80
2023/03/15 11:39:44;;;;;;;6.05;2.17;;;9.10;76.40;;;;;;6140912;23;20055;-79
2023/03/15 11:43:14;;;;;;;7.65;2.50;;;9.20;76.10;;;;;;6141608;23;20108;-79
2023/03/15 11:46:05;;;;;;;4.18;1.90;;;9.20;75.40;;;;;;6051442;23;20028;-79
2023/03/15 11:49:01;;;;;;;3.28;1.42;;;9.40;75.90;;;;;;6174909;23;20025;-80
2023/03/15 11:51:33;;;;;;;4.68;1.30;;;9.00;75.10;;;;;;6159905;23;20017;-79
2023/03/15 11:54:12;;;;;;;6.22;1.50;;;9.20;74.40;;;;;;6124379;23;20055;-80
2023/03/15 11:56:42;;;;;;;7.47;2.00;;;9.40;74.70;;;;;;6135516;23;20017;-79
2023/03/15 11:59:15;;;;;;;7.97;2.03;;;9.50;74.30;;;;;;6133604;23;20049;-79
2023/03/15 12:01:59;;;;;;;5.70;2.20;;;9.60;74.50;;;;;;6130017;23;20069;-80
2023/03/15 12:04:37;;;;;;;5.82;1.90;;;9.60;74.00;;;;;;6118945;23;20433;-79
2023/03/15 12:07:22;;;;;;;6.78;2.05;;;9.40;73.60;;;;;;6126108;23;20025;-79
2023/03/15 12:10:14;;;;;;;5.93;2.17;;;9.40;73.50;;;;;;6113078;23;20120;-80
2023/03/15 12:12:46;;;;;;;4.65;1.88;;;9.60;73.50;;;;;;6121375;23;20093;-79
2023/03/15 12:15:37;;;;;;;3.20;1.23;;;9.40;72.40;;;;;;6120433;23;20021;-79
2023/03/15 12:18:05;;;;;;;6.05;1.98;;;9.40;73.60;;;;;;6116710;23;20017;-79
2023/03/15 12:20:39;;;;;;;3.35;1.50;;;9.50;72.70;;;;;;6122125;23;20037;-80
2023/03/15 12:23:18;;;;;;;4.10;1.80;;;9.80;72.80;;;;;;6101282;23;20017;-79
2023/03/15 12:25:54;;;;;;;4.00;1.98;;;9.80;71.90;;;;;;6119318;23;20055;-79
2023/03/15 12:28:34;;;;;;;3.95;1.85;;;9.60;72.50;;;;;;6113287;23;20413;-79
2023/03/15 12:31:07;;;;;;;6.50;2.72;;;9.40;72.10;;;;;;6090921;23;20093;-80
2023/03/15 12:33:51;;;;;;;3.80;2.05;;;9.80;72.60;;;;;;6113149;23;20021;-79
2023/03/15 12:36:38;;;;;;;3.28;1.20;;;9.70;71.80;;;;;;6114772;23;20026;-79
2023/03/15 12:39:08;;;;;;;7.28;1.67;;;9.50;71.50;;;;;;6093104;23;20058;-80
2023/03/15 12:41:42;;;;;;;5.00;1.57;;;9.40;71.00;;;;;;6125431;23;20194;-80
2023/03/15 12:44:26;;;;;;;3.50;1.60;;;9.50;70.80;;;;;;6113362;23;20032;-79
2023/03/15 12:46:55;;;;;;;5.80;2.22;;;9.40;71.30;;;;;;6123231;23;20029;-79
2023/03/15 12:49:23;;;;;;;5.88;2.70;;;9.70;71.20;;;;;;6153769;23;20024;-80
2023/03/15 12:52:26;;;;;;;5.65;2.33;;;8.90;71.20;;;;;;6155862;23;20025;-79
2023/03/15 12:55:15;;;;;;;3.40;1.73;;;9.50;70.30;;;;;;6124136;23;20388;-79
2023/03/15 12:57:52;;;;;;;4.72;1.60;;;9.80;70.80;;;;;;6125119;23;20048;-80
2023/03/15 13:00:27;;;;;;;6.47;2.58;;;9.60;70.50;;;;;;6146122;23;20089;-79
2023/03/15 13:03:03;;;;;;;3.75;1.70;;;9.60;70.10;;;;;;6149331;23;20017;-80
2023/03/15 13:05:42;;;;;;;4.03;1.65;;;9.70;70.40;;;;;;6171669;23;20021;-79
2023/03/15 13:08:30;;;;;;;4.30;1.75;;;9.30;69.80;;;;;;6183871;23;20017;-79
2023/03/15 13:11:18;;;;;;;5.18;2.55;;;9.50;69.10;;;;;;6157414;23;20031;-80
2023/03/15 13:13:59;;;;;;;6.50;2.28;;;9.30;69.00;;;;;;6169588;23;20017;-80
2023/03/15 13:16:35;;;;;;;4.53;1.55;;;9.40;68.70;;;;;;6184885;23;20017;-80
2023/03/15 13:19:28;;;;;;;6.47;3.35;;;9.20;68.80;;;;;;6134060;23;20029;-79
2023/03/15 13:22:04;;;;;;;11.02;5.68;;;9.30;68.40;;;;;;6157013;23;20492;-79
2023/03/15 13:24:51;;;;;;;4.00;1.20;;;9.50;68.80;;;;;;6128797;23;20135;-80
2023/03/15 13:27:52;;;;;;;4.95;1.27;;;9.40;68.00;;;;;;6132350;23;20448;-80
2023/03/15 13:30:46;;;;;;;6.47;1.40;;;9.30;67.50;;;;;;6134001;23;20036;-80
2023/03/15 13:33:21;;;;;;;6.97;1.88;;;9.30;67.90;;;;;;6156147;23;20079;-80
2023/03/15 13:35:59;;;;;;;3.85;1.75;;;9.30;67.00;;;;;;6166190;23;20036;-80
2023/03/15 13:38:52;;;;;;;6.70;1.85;;;9.40;67.60;;;;;;6159263;23;20063;-79
2023/03/15 13:41:24;;;;;;;5.70;1.40;;;9.30;66.90;;;;;;6159935;23;20024;-80
2023/03/15 13:43:56;;;;;;;5.47;1.77;;;9.10;65.70;;;;;;6135007;23;20043;-79
2023/03/15 13:46:29;;;;;;;4.68;1.20;;;9.00;66.10;;;;;;6158421;23;20032;-82
2023/03/15 13:49:00;;;;;;;5.33;1.90;;;9.20;64.60;;;;;;6131891;23;20031;-80
2023/03/15 13:51:36;;;;;;;5.53;1.42;;;9.20;65.60;;;;;;6130300;23;20420;-80
2023/03/15 13:54:31;;;;;;;3.28;1.40;;;9.20;65.10;;;;;;6147151;23;20047;-80
2023/03/15 13:57:05;;;;;;;7.85;1.80;;;9.20;65.80;;;;;;6128006;23;20021;-80
2023/03/15 13:59:41;;;;;;;4.70;1.13;;;9.10;65.50;;;;;;6154938;23;20025;-80
2023/03/15 14:02:18;;;;;;;6.93;2.38;;;9.20;65.10;;;;;;6155856;23;20081;-80
2023/03/15 14:04:55;;;;;;;6.75;1.42;;;9.00;64.90;;;;;;6154995;23;20108;-80
2023/03/15 14:07:33;;;;;;;3.70;1.30;;;8.90;65.00;;;;;;6132890;23;20031;-79
2023/03/15 14:10:09;;;;;;;5.57;1.52;;;9.10;65.10;;;;;;6131099;23;20067;-80